createdAt,value
2024-04-30T00:00:34.140Z,75.72
2024-04-30T00:04:38.798Z,74.80
2024-04-30T00:08:40.581Z,75.35
2024-04-30T00:12:42.381Z,76.09
2024-04-30T00:16:44.753Z,76.13
2024-04-30T00:20:49.144Z,77.06
2024-04-30T00:24:50.883Z,77.75
2024-04-30T00:28:52.885Z,79.98
2024-04-30T00:32:54.608Z,80.87
2024-04-30T00:36:58.991Z,81.36
2024-04-30T00:41:00.851Z,82.50
2024-04-30T00:45:03.005Z,82.80
2024-04-30T00:49:05.004Z,83.75
2024-04-30T00:53:09.534Z,85.18
2024-04-30T00:57:11.533Z,85.47
2024-04-30T01:01:13.777Z,85.40
2024-04-30T01:05:15.664Z,86.25
2024-04-30T01:09:20.151Z,86.48
2024-04-30T01:13:22.001Z,85.95
2024-04-30T01:17:23.937Z,87.90
2024-04-30T01:21:25.796Z,87.56
2024-04-30T01:25:30.430Z,87.20
2024-04-30T01:29:32.300Z,87.36
2024-04-30T01:33:34.093Z,88.17
2024-04-30T01:37:35.947Z,88.04
2024-04-30T01:41:43.606Z,88.48
2024-04-30T01:45:45.854Z,89.89
2024-04-30T01:49:48.963Z,90.68
2024-04-30T01:53:50.693Z,90.26
2024-04-30T01:57:55.018Z,91.01
2024-04-30T02:01:56.891Z,90.89
2024-04-30T02:05:58.779Z,91.21
2024-04-30T02:10:00.756Z,90.76
2024-04-30T02:14:05.058Z,89.96
2024-04-30T02:18:07.164Z,90.60
2024-04-30T02:22:08.948Z,90.77
2024-04-30T02:26:10.759Z,91.25
2024-04-30T02:30:15.204Z,90.56
2024-04-30T02:34:17.029Z,91.14
2024-04-30T02:38:18.871Z,91.55
2024-04-30T02:42:20.631Z,91.66
2024-04-30T02:46:25.137Z,91.81
2024-04-30T02:50:26.929Z,91.91
2024-04-30T02:54:28.889Z,91.64
2024-04-30T02:58:30.926Z,92.41
2024-04-30T03:02:35.557Z,92.20
2024-04-30T03:06:38.263Z,92.73
2024-04-30T03:10:40.086Z,92.95
2024-04-30T03:14:43.179Z,93.27
2024-04-30T03:18:47.525Z,93.42
2024-04-30T03:22:49.472Z,93.39
2024-04-30T03:26:51.255Z,92.99
2024-04-30T03:30:53.013Z,93.51
2024-04-30T03:34:57.387Z,93.65
2024-04-30T03:38:59.163Z,94.13
2024-04-30T03:43:01.011Z,94.36
2024-04-30T03:47:03.036Z,94.71
2024-04-30T03:51:07.519Z,95.47
2024-04-30T03:55:09.322Z,94.82
2024-04-30T03:59:11.315Z,94.22
2024-04-30T04:03:13.260Z,94.18
2024-04-30T04:07:18.122Z,94.92
2024-04-30T04:11:20.128Z,94.49
2024-04-30T04:15:21.866Z,94.97
2024-04-30T04:19:23.659Z,95.06
2024-04-30T04:23:28.149Z,95.46
2024-04-30T04:27:29.985Z,95.15
2024-04-30T04:31:31.883Z,95.43
2024-04-30T04:35:33.725Z,95.22
2024-04-30T04:39:38.119Z,95.45
2024-04-30T04:43:39.927Z,95.53
2024-04-30T04:47:42.746Z,95.45
2024-04-30T04:51:44.495Z,95.13
2024-04-30T04:55:49.090Z,88.07
2024-04-30T04:59:51.131Z,93.43
2024-04-30T05:03:52.962Z,94.21
2024-04-30T05:07:54.771Z,94.65
2024-04-30T05:11:59.335Z,94.24
2024-04-30T05:16:01.227Z,94.20
2024-04-30T05:20:03.252Z,93.49
2024-04-30T05:24:05.556Z,94.08
2024-04-30T05:28:10.134Z,94.10
2024-04-30T05:32:11.982Z,93.75
2024-04-30T05:36:13.941Z,94.18
2024-04-30T05:40:15.817Z,95.71
2024-04-30T05:44:22.612Z,95.12
2024-04-30T05:48:24.824Z,89.94
2024-04-30T05:52:26.651Z,90.10
2024-04-30T05:56:28.462Z,90.68
2024-04-30T06:00:33.101Z,89.30
2024-04-30T06:04:35.407Z,89.64
2024-04-30T06:08:40.990Z,87.39
2024-04-30T06:12:43.411Z,86.94
2024-04-30T06:16:47.711Z,87.43
2024-04-30T06:20:49.455Z,87.88
2024-04-30T06:24:51.483Z,87.17
2024-04-30T06:28:53.345Z,85.84
2024-04-30T06:32:58.042Z,84.93
2024-04-30T06:36:59.851Z,84.68
2024-04-30T06:41:01.722Z,83.64
2024-04-30T06:45:03.779Z,78.28
2024-04-30T06:49:08.213Z,71.78
2024-04-30T06:53:10.050Z,66.82
2024-04-30T06:57:11.901Z,58.87
2024-04-30T07:01:13.667Z,51.48
2024-04-30T07:05:18.504Z,50.29
2024-04-30T07:09:20.319Z,48.30
2024-04-30T07:13:22.116Z,54.08
2024-04-30T07:17:24.022Z,55.24
2024-04-30T07:21:28.446Z,49.03
2024-04-30T07:25:30.258Z,46.31
2024-04-30T07:29:32.006Z,46.35
2024-04-30T07:33:33.914Z,46.15
2024-04-30T07:37:38.522Z,49.76
2024-04-30T07:41:40.441Z,53.44
2024-04-30T07:45:42.263Z,56.20
2024-04-30T07:49:44.335Z,54.86
2024-04-30T07:53:48.719Z,53.34
2024-04-30T07:57:51.290Z,50.52
2024-04-30T08:01:53.136Z,51.66
2024-04-30T08:05:56.382Z,50.06
2024-04-30T08:10:03.381Z,48.64
2024-04-30T08:14:06.136Z,41.40
2024-04-30T08:18:07.930Z,39.30
2024-04-30T08:22:09.810Z,34.85
2024-04-30T08:26:14.233Z,33.66
2024-04-30T08:30:16.082Z,35.61
2024-04-30T08:34:18.565Z,39.01
2024-04-30T08:38:20.447Z,41.13
2024-04-30T08:42:25.083Z,40.98
2024-04-30T08:46:30.018Z,41.03
2024-04-30T08:50:33.420Z,40.39
2024-04-30T08:54:37.040Z,39.19
2024-04-30T08:58:42.190Z,35.05
2024-04-30T09:02:52.308Z,33.07
2024-04-30T09:06:55.290Z,30.72
2024-04-30T09:10:57.204Z,28.28
2024-04-30T09:15:01.621Z,28.99
2024-04-30T09:19:03.658Z,31.24
2024-04-30T09:23:05.519Z,29.14
2024-04-30T09:27:07.312Z,31.66
2024-04-30T09:31:11.714Z,29.60
2024-04-30T09:35:24.128Z,29.90
2024-04-30T09:39:26.715Z,28.97
2024-04-30T09:43:29.232Z,25.99
2024-04-30T09:47:36.277Z,25.42
2024-04-30T09:51:40.471Z,24.82
2024-04-30T09:55:43.900Z,25.22
2024-04-30T09:59:45.803Z,24.96
2024-04-30T10:03:52.020Z,26.31
2024-04-30T10:07:55.518Z,26.04
2024-04-30T10:11:57.350Z,25.95
2024-04-30T10:15:59.342Z,24.98
2024-04-30T10:20:04.108Z,26.73
2024-04-30T10:24:16.876Z,30.69
2024-04-30T10:28:19.866Z,31.41
2024-04-30T10:32:22.256Z,32.82
2024-04-30T10:36:26.749Z,32.96
2024-04-30T10:40:28.842Z,31.77
2024-04-30T10:44:41.306Z,32.48
2024-04-30T10:48:50.395Z,33.36
2024-04-30T10:52:55.148Z,28.25
2024-04-30T10:56:56.983Z,26.66
2024-04-30T11:00:59.461Z,26.89
2024-04-30T11:05:12.139Z,26.78
